sensor_id;sensor_type;location;lat;lon;timestamp;P1;durP1;ratioP1;P2;durP2;ratioP2
58659;SDS011;44429;45.110;20.622;2023-02-20T00:00:29;0.68;;;0.20;;
58659;SDS011;44429;45.110;20.622;2023-02-20T00:02:55;0.00;;;0.00;;
58659;SDS011;44429;45.110;20.622;2023-02-20T00:05:21;0.20;;;0.10;;
58659;SDS011;44429;45.110;20.622;2023-02-20T00:07:47;0.80;;;0.52;;
58659;SDS011;44429;45.110;20.622;2023-02-20T00:10:14;0.00;;;0.00;;
58659;SDS011;44429;45.110;20.622;2023-02-20T00:12:40;0.52;;;0.28;;
58659;SDS011;44429;45.110;20.622;2023-02-20T00:15:07;0.38;;;0.20;;
58659;SDS011;44429;45.110;20.622;2023-02-20T00:17:33;0.00;;;0.00;;
58659;SDS011;44429;45.110;20.622;2023-02-20T00:19:59;0.00;;;0.00;;
58659;SDS011;44429;45.110;20.622;2023-02-20T00:22:26;0.00;;;0.00;;
58659;SDS011;44429;45.110;20.622;2023-02-20T00:24:52;0.00;;;0.00;;
58659;SDS011;44429;45.110;20.622;2023-02-20T00:27:18;0.68;;;0.45;;
58659;SDS011;44429;45.110;20.622;2023-02-20T00:29:44;0.00;;;0.00;;
58659;SDS011;44429;45.110;20.622;2023-02-20T00:32:10;0.00;;;0.00;;
58659;SDS011;44429;45.110;20.622;2023-02-20T00:34:37;0.00;;;0.00;;
58659;SDS011;44429;45.110;20.622;2023-02-20T00:37:03;0.00;;;0.00;;
58659;SDS011;44429;45.110;20.622;2023-02-20T00:39:30;0.63;;;0.20;;
58659;SDS011;44429;45.110;20.622;2023-02-20T00:41:56;0.00;;;0.00;;
58659;SDS011;44429;45.110;20.622;2023-02-20T00:44:23;0.00;;;0.00;;
58659;SDS011;44429;45.110;20.622;2023-02-20T00:46:49;0.00;;;0.00;;
58659;SDS011;44429;45.110;20.622;2023-02-20T00:49:15;0.25;;;0.10;;
58659;SDS011;44429;45.110;20.622;2023-02-20T00:51:41;0.00;;;0.00;;
58659;SDS011;44429;45.110;20.622;2023-02-20T00:54:07;0.00;;;0.00;;
58659;SDS011;44429;45.110;20.622;2023-02-20T00:56:33;4.47;;;0.75;;
58659;SDS011;44429;45.110;20.622;2023-02-20T00:58:59;0.22;;;0.15;;
58659;SDS011;44429;45.110;20.622;2023-02-20T01:01:26;0.00;;;0.00;;
58659;SDS011;44429;45.110;20.622;2023-02-20T01:03:52;0.10;;;0.00;;
58659;SDS011;44429;45.110;20.622;2023-02-20T01:06:18;0.10;;;0.10;;
58659;SDS011;44429;45.110;20.622;2023-02-20T01:08:44;0.40;;;0.30;;
58659;SDS011;44429;45.110;20.622;2023-02-20T01:11:10;0.00;;;0.00;;
58659;SDS011;44429;45.110;20.622;2023-02-20T01:13:36;0.28;;;0.13;;
58659;SDS011;44429;45.110;20.622;2023-02-20T01:16:03;0.00;;;0.00;;
58659;SDS011;44429;45.110;20.622;2023-02-20T01:18:29;0.00;;;0.00;;
58659;SDS011;44429;45.110;20.622;2023-02-20T01:20:55;0.05;;;0.03;;
58659;SDS011;44429;45.110;20.622;2023-02-20T01:23:22;0.63;;;0.20;;
58659;SDS011;44429;45.110;20.622;2023-02-20T01:25:48;0.30;;;0.17;;
58659;SDS011;44429;45.110;20.622;2023-02-20T01:28:14;0.00;;;0.00;;
58659;SDS011;44429;45.110;20.622;2023-02-20T01:30:41;0.05;;;0.05;;
58659;SDS011;44429;45.110;20.622;2023-02-20T01:33:07;0.00;;;0.00;;
58659;SDS011;44429;45.110;20.622;2023-02-20T01:35:33;0.22;;;0.10;;
58659;SDS011;44429;45.110;20.622;2023-02-20T01:38:00;0.00;;;0.00;;
58659;SDS011;44429;45.110;20.622;2023-02-20T01:40:30;0.35;;;0.10;;
58659;SDS011;44429;45.110;20.622;2023-02-20T01:42:57;0.77;;;0.35;;
58659;SDS011;44429;45.110;20.622;2023-02-20T01:47:50;0.00;;;0.00;;
58659;SDS011;44429;45.110;20.622;2023-02-20T01:50:17;0.00;;;0.00;;
58659;SDS011;44429;45.110;20.622;2023-02-20T01:52:44;0.00;;;0.00;;
58659;SDS011;44429;45.110;20.622;2023-02-20T01:55:20;0.00;;;0.00;;
58659;SDS011;44429;45.110;20.622;2023-02-20T01:57:49;0.00;;;0.00;;
58659;SDS011;44429;45.110;20.622;2023-02-20T02:00:17;0.22;;;0.10;;
58659;SDS011;44429;45.110;20.622;2023-02-20T02:02:48;0.00;;;0.00;;
58659;SDS011;44429;45.110;20.622;2023-02-20T02:05:15;0.25;;;0.03;;
58659;SDS011;44429;45.110;20.622;2023-02-20T02:07:42;0.45;;;0.10;;
58659;SDS011;44429;45.110;20.622;2023-02-20T02:10:09;0.63;;;0.30;;
58659;SDS011;44429;45.110;20.622;2023-02-20T02:12:36;0.88;;;0.65;;
58659;SDS011;44429;45.110;20.622;2023-02-20T02:15:02;0.32;;;0.17;;
58659;SDS011;44429;45.110;20.622;2023-02-20T02:28:43;0.08;;;0.08;;
58659;SDS011;44429;45.110;20.622;2023-02-20T02:33:59;0.28;;;0.03;;
58659;SDS011;44429;45.110;20.622;2023-02-20T02:36:31;0.00;;;0.00;;
58659;SDS011;44429;45.110;20.622;2023-02-20T02:41:48;0.22;;;0.20;;
58659;SDS011;44429;45.110;20.622;2023-02-20T02:51:40;1.00;;;0.47;;
58659;SDS011;44429;45.110;20.622;2023-02-20T02:54:14;0.00;;;0.00;;
58659;SDS011;44429;45.110;20.622;2023-02-20T02:56:42;0.00;;;0.00;;
58659;SDS011;44429;45.110;20.622;2023-02-20T02:59:13;0.20;;;0.10;;
58659;SDS011;44429;45.110;20.622;2023-02-20T03:01:45;0.30;;;0.22;;
58659;SDS011;44429;45.110;20.622;2023-02-20T03:04:12;0.30;;;0.20;;
58659;SDS011;44429;45.110;20.622;2023-02-20T03:06:40;0.45;;;0.15;;
58659;SDS011;44429;45.110;20.622;2023-02-20T03:09:09;0.63;;;0.22;;
58659;SDS011;44429;45.110;20.622;2023-02-20T03:11:36;0.30;;;0.10;;
58659;SDS011;44429;45.110;20.622;2023-02-20T03:16:53;0.00;;;0.00;;
58659;SDS011;44429;45.110;20.622;2023-02-20T03:19:24;1.25;;;0.45;;
58659;SDS011;44429;45.110;20.622;2023-02-20T03:21:51;1.98;;;0.90;;
58659;SDS011;44429;45.110;20.622;2023-02-20T03:24:18;0.00;;;0.00;;
58659;SDS011;44429;45.110;20.622;2023-02-20T03:26:46;0.60;;;0.57;;
58659;SDS011;44429;45.110;20.622;2023-02-20T03:29:16;2.17;;;1.00;;
58659;SDS011;44429;45.110;20.622;2023-02-20T03:31:52;7.13;;;2.28;;
58659;SDS011;44429;45.110;20.622;2023-02-20T03:34:38;0.10;;;0.03;;
58659;SDS011;44429;45.110;20.622;2023-02-20T03:37:24;0.00;;;0.00;;
58659;SDS011;44429;45.110;20.622;2023-02-20T03:40:10;0.15;;;0.10;;
58659;SDS011;44429;45.110;20.622;2023-02-20T03:42:58;0.28;;;0.20;;
58659;SDS011;44429;45.110;20.622;2023-02-20T03:45:44;0.00;;;0.00;;
58659;SDS011;44429;45.110;20.622;2023-02-20T03:48:13;0.10;;;0.00;;
58659;SDS011;44429;45.110;20.622;2023-02-20T03:50:40;0.00;;;0.00;;
58659;SDS011;44429;45.110;20.622;2023-02-20T03:53:07;0.00;;;0.00;;
58659;SDS011;44429;45.110;20.622;2023-02-20T03:55:33;0.85;;;0.40;;
58659;SDS011;44429;45.110;20.622;2023-02-20T03:58:00;0.65;;;0.20;;
58659;SDS011;44429;45.110;20.622;2023-02-20T04:00:30;0.28;;;0.15;;
58659;SDS011;44429;45.110;20.622;2023-02-20T04:02:58;0.15;;;0.08;;
58659;SDS011;44429;45.110;20.622;2023-02-20T04:05:28;7.15;;;0.85;;
58659;SDS011;44429;45.110;20.622;2023-02-20T04:10:25;0.90;;;0.35;;
58659;SDS011;44429;45.110;20.622;2023-02-20T04:12:52;0.00;;;0.00;;
58659;SDS011;44429;45.110;20.622;2023-02-20T04:15:19;0.20;;;0.10;;
58659;SDS011;44429;45.110;20.622;2023-02-20T04:17:47;0.35;;;0.10;;
58659;SDS011;44429;45.110;20.622;2023-02-20T04:20:14;0.35;;;0.20;;
58659;SDS011;44429;45.110;20.622;2023-02-20T04:22:41;0.00;;;0.00;;
58659;SDS011;44429;45.110;20.622;2023-02-20T04:25:20;1.80;;;0.47;;
58659;SDS011;44429;45.110;20.622;2023-02-20T04:27:48;0.00;;;0.00;;
58659;SDS011;44429;45.110;20.622;2023-02-20T04:30:14;0.00;;;0.00;;
58659;SDS011;44429;45.110;20.622;2023-02-20T04:32:40;0.00;;;0.00;;
58659;SDS011;44429;45.110;20.622;2023-02-20T04:35:08;0.00;;;0.00;;
58659;SDS011;44429;45.110;20.622;2023-02-20T04:37:35;2.00;;;0.65;;
58659;SDS011;44429;45.110;20.622;2023-02-20T04:40:01;0.00;;;0.00;;
58659;SDS011;44429;45.110;20.622;2023-02-20T04:42:27;0.22;;;0.10;;
58659;SDS011;44429;45.110;20.622;2023-02-20T04:44:53;0.60;;;0.20;;
58659;SDS011;44429;45.110;20.622;2023-02-20T04:47:19;0.45;;;0.32;;
58659;SDS011;44429;45.110;20.622;2023-02-20T04:49:45;0.50;;;0.17;;
58659;SDS011;44429;45.110;20.622;2023-02-20T04:52:12;0.00;;;0.00;;
58659;SDS011;44429;45.110;20.622;2023-02-20T04:54:38;0.52;;;0.20;;
58659;SDS011;44429;45.110;20.622;2023-02-20T04:57:04;0.00;;;0.00;;
58659;SDS011;44429;45.110;20.622;2023-02-20T04:59:30;0.40;;;0.22;;
58659;SDS011;44429;45.110;20.622;2023-02-20T05:01:56;0.28;;;0.10;;
58659;SDS011;44429;45.110;20.622;2023-02-20T05:04:25;0.32;;;0.15;;
58659;SDS011;44429;45.110;20.622;2023-02-20T05:06:51;0.28;;;0.10;;
58659;SDS011;44429;45.110;20.622;2023-02-20T05:09:18;0.82;;;0.30;;
58659;SDS011;44429;45.110;20.622;2023-02-20T05:11:44;0.32;;;0.13;;
58659;SDS011;44429;45.110;20.622;2023-02-20T05:14:10;0.00;;;0.00;;
58659;SDS011;44429;45.110;20.622;2023-02-20T05:16:37;0.00;;;0.00;;
58659;SDS011;44429;45.110;20.622;2023-02-20T05:19:03;2.65;;;1.00;;
58659;SDS011;44429;45.110;20.622;2023-02-20T05:21:29;0.90;;;0.15;;
58659;SDS011;44429;45.110;20.622;2023-02-20T05:24:14;0.30;;;0.10;;
58659;SDS011;44429;45.110;20.622;2023-02-20T05:26:40;27.00;;;7.28;;
58659;SDS011;44429;45.110;20.622;2023-02-20T05:29:07;3.65;;;2.28;;
58659;SDS011;44429;45.110;20.622;2023-02-20T05:31:36;2.05;;;1.55;;
58659;SDS011;44429;45.110;20.622;2023-02-20T05:34:02;0.00;;;0.00;;
58659;SDS011;44429;45.110;20.622;2023-02-20T05:36:29;0.00;;;0.00;;
58659;SDS011;44429;45.110;20.622;2023-02-20T05:38:55;1.38;;;0.75;;
58659;SDS011;44429;45.110;20.622;2023-02-20T05:41:21;0.08;;;0.03;;
58659;SDS011;44429;45.110;20.622;2023-02-20T05:43:48;0.90;;;0.80;;
58659;SDS011;44429;45.110;20.622;2023-02-20T05:46:14;0.00;;;0.00;;
58659;SDS011;44429;45.110;20.622;2023-02-20T05:48:41;0.65;;;0.35;;
58659;SDS011;44429;45.110;20.622;2023-02-20T05:51:07;0.20;;;0.03;;
58659;SDS011;44429;45.110;20.622;2023-02-20T05:53:33;0.70;;;0.25;;
58659;SDS011;44429;45.110;20.622;2023-02-20T05:55:59;20.25;;;7.65;;
58659;SDS011;44429;45.110;20.622;2023-02-20T05:58:25;1.52;;;1.02;;
58659;SDS011;44429;45.110;20.622;2023-02-20T06:00:51;4.07;;;1.13;;
58659;SDS011;44429;45.110;20.622;2023-02-20T06:03:17;1.70;;;0.95;;
58659;SDS011;44429;45.110;20.622;2023-02-20T06:05:43;0.47;;;0.45;;
58659;SDS011;44429;45.110;20.622;2023-02-20T06:08:09;0.73;;;0.22;;
58659;SDS011;44429;45.110;20.622;2023-02-20T06:10:35;8.60;;;0.45;;
58659;SDS011;44429;45.110;20.622;2023-02-20T06:13:01;3.20;;;1.60;;
58659;SDS011;44429;45.110;20.622;2023-02-20T06:15:28;0.00;;;0.00;;
58659;SDS011;44429;45.110;20.622;2023-02-20T06:17:54;0.40;;;0.20;;
58659;SDS011;44429;45.110;20.622;2023-02-20T06:20:20;1.90;;;0.90;;
58659;SDS011;44429;45.110;20.622;2023-02-20T06:22:46;1.10;;;0.43;;
58659;SDS011;44429;45.110;20.622;2023-02-20T06:25:13;0.90;;;0.38;;
58659;SDS011;44429;45.110;20.622;2023-02-20T06:27:39;2.78;;;1.17;;
58659;SDS011;44429;45.110;20.622;2023-02-20T06:30:05;0.82;;;0.40;;
58659;SDS011;44429;45.110;20.622;2023-02-20T06:32:31;6.88;;;2.45;;
58659;SDS011;44429;45.110;20.622;2023-02-20T06:34:57;4.30;;;2.00;;
58659;SDS011;44429;45.110;20.622;2023-02-20T06:37:23;1.52;;;0.50;;
58659;SDS011;44429;45.110;20.622;2023-02-20T06:39:49;1.90;;;1.48;;
58659;SDS011;44429;45.110;20.622;2023-02-20T06:42:15;1.65;;;0.88;;
58659;SDS011;44429;45.110;20.622;2023-02-20T06:44:41;0.08;;;0.00;;
58659;SDS011;44429;45.110;20.622;2023-02-20T06:47:07;0.22;;;0.10;;
58659;SDS011;44429;45.110;20.622;2023-02-20T06:49:37;0.45;;;0.30;;
58659;SDS011;44429;45.110;20.622;2023-02-20T06:52:04;2.40;;;0.55;;
58659;SDS011;44429;45.110;20.622;2023-02-20T06:54:30;1.15;;;0.40;;
58659;SDS011;44429;45.110;20.622;2023-02-20T06:56:58;0.68;;;0.30;;
58659;SDS011;44429;45.110;20.622;2023-02-20T06:59:24;0.82;;;0.50;;
58659;SDS011;44429;45.110;20.622;2023-02-20T07:01:50;0.10;;;0.08;;
58659;SDS011;44429;45.110;20.622;2023-02-20T07:04:23;1.58;;;0.63;;
58659;SDS011;44429;45.110;20.622;2023-02-20T07:06:50;0.77;;;0.63;;
58659;SDS011;44429;45.110;20.622;2023-02-20T07:09:16;3.15;;;0.52;;
58659;SDS011;44429;45.110;20.622;2023-02-20T07:11:44;0.10;;;0.10;;
58659;SDS011;44429;45.110;20.622;2023-02-20T07:14:10;3.40;;;0.47;;
58659;SDS011;44429;45.110;20.622;2023-02-20T07:16:36;0.52;;;0.32;;
58659;SDS011;44429;45.110;20.622;2023-02-20T07:19:02;7.97;;;0.65;;
58659;SDS011;44429;45.110;20.622;2023-02-20T07:21:28;0.60;;;0.28;;
58659;SDS011;44429;45.110;20.622;2023-02-20T07:23:54;8.68;;;3.15;;
58659;SDS011;44429;45.110;20.622;2023-02-20T07:26:21;13.32;;;5.05;;
58659;SDS011;44429;45.110;20.622;2023-02-20T07:28:48;9.25;;;4.82;;
58659;SDS011;44429;45.110;20.622;2023-02-20T07:31:14;3.70;;;1.85;;
58659;SDS011;44429;45.110;20.622;2023-02-20T07:33:40;4.50;;;2.22;;
58659;SDS011;44429;45.110;20.622;2023-02-20T07:36:08;16.63;;;7.15;;
58659;SDS011;44429;45.110;20.622;2023-02-20T07:38:34;14.75;;;5.85;;
58659;SDS011;44429;45.110;20.622;2023-02-20T07:41:00;5.13;;;3.17;;
58659;SDS011;44429;45.110;20.622;2023-02-20T07:43:26;5.13;;;1.25;;
58659;SDS011;44429;45.110;20.622;2023-02-20T07:45:52;0.98;;;0.52;;
58659;SDS011;44429;45.110;20.622;2023-02-20T07:48:18;5.15;;;2.67;;
58659;SDS011;44429;45.110;20.622;2023-02-20T07:50:44;2.53;;;1.10;;
58659;SDS011;44429;45.110;20.622;2023-02-20T07:53:14;0.40;;;0.20;;
58659;SDS011;44429;45.110;20.622;2023-02-20T07:55:40;1.73;;;0.63;;
58659;SDS011;44429;45.110;20.622;2023-02-20T07:58:06;1.75;;;0.95;;
58659;SDS011;44429;45.110;20.622;2023-02-20T08:00:32;0.43;;;0.22;;
58659;SDS011;44429;45.110;20.622;2023-02-20T08:02:58;1.95;;;0.98;;
58659;SDS011;44429;45.110;20.622;2023-02-20T08:05:25;2.08;;;1.08;;
58659;SDS011;44429;45.110;20.622;2023-02-20T08:07:51;0.08;;;0.05;;
58659;SDS011;44429;45.110;20.622;2023-02-20T08:10:19;3.35;;;2.10;;
58659;SDS011;44429;45.110;20.622;2023-02-20T08:12:46;6.25;;;2.38;;
58659;SDS011;44429;45.110;20.622;2023-02-20T08:15:12;1.25;;;0.68;;
58659;SDS011;44429;45.110;20.622;2023-02-20T08:17:38;0.63;;;0.22;;
58659;SDS011;44429;45.110;20.622;2023-02-20T08:20:05;1.40;;;0.98;;
58659;SDS011;44429;45.110;20.622;2023-02-20T08:22:32;1.95;;;0.93;;
58659;SDS011;44429;45.110;20.622;2023-02-20T08:24:58;2.08;;;0.80;;
58659;SDS011;44429;45.110;20.622;2023-02-20T08:27:24;2.47;;;0.65;;
58659;SDS011;44429;45.110;20.622;2023-02-20T08:29:51;1.98;;;1.05;;
58659;SDS011;44429;45.110;20.622;2023-02-20T08:32:17;8.25;;;1.23;;
58659;SDS011;44429;45.110;20.622;2023-02-20T08:34:43;2.53;;;0.82;;
58659;SDS011;44429;45.110;20.622;2023-02-20T08:37:09;3.95;;;1.27;;
58659;SDS011;44429;45.110;20.622;2023-02-20T08:39:35;0.63;;;0.28;;
58659;SDS011;44429;45.110;20.622;2023-02-20T08:42:01;0.47;;;0.20;;
58659;SDS011;44429;45.110;20.622;2023-02-20T08:44:27;0.80;;;0.28;;
58659;SDS011;44429;45.110;20.622;2023-02-20T08:46:53;4.03;;;1.38;;
58659;SDS011;44429;45.110;20.622;2023-02-20T08:49:20;1.63;;;1.00;;
58659;SDS011;44429;45.110;20.622;2023-02-20T08:51:46;1.08;;;0.40;;
58659;SDS011;44429;45.110;20.622;2023-02-20T08:54:13;1.13;;;0.40;;
58659;SDS011;44429;45.110;20.622;2023-02-20T08:56:40;0.30;;;0.10;;
58659;SDS011;44429;45.110;20.622;2023-02-20T08:59:06;1.27;;;0.68;;
58659;SDS011;44429;45.110;20.622;2023-02-20T09:01:32;1.88;;;0.90;;
58659;SDS011;44429;45.110;20.622;2023-02-20T09:03:58;0.98;;;0.57;;
58659;SDS011;44429;45.110;20.622;2023-02-20T09:06:26;1.35;;;0.43;;
58659;SDS011;44429;45.110;20.622;2023-02-20T09:08:53;0.95;;;0.32;;
58659;SDS011;44429;45.110;20.622;2023-02-20T09:11:19;1.15;;;0.77;;
58659;SDS011;44429;45.110;20.622;2023-02-20T09:13:46;1.35;;;0.52;;
58659;SDS011;44429;45.110;20.622;2023-02-20T09:16:13;1.90;;;0.70;;
58659;SDS011;44429;45.110;20.622;2023-02-20T09:18:40;1.17;;;0.60;;
58659;SDS011;44429;45.110;20.622;2023-02-20T09:21:10;3.13;;;0.73;;
58659;SDS011;44429;45.110;20.622;2023-02-20T09:23:36;1.15;;;0.50;;
58659;SDS011;44429;45.110;20.622;2023-02-20T09:26:03;0.63;;;0.20;;
58659;SDS011;44429;45.110;20.622;2023-02-20T09:28:29;0.10;;;0.10;;
58659;SDS011;44429;45.110;20.622;2023-02-20T09:30:55;0.85;;;0.32;;
58659;SDS011;44429;45.110;20.622;2023-02-20T09:33:22;1.85;;;1.10;;
58659;SDS011;44429;45.110;20.622;2023-02-20T09:35:48;0.22;;;0.10;;
58659;SDS011;44429;45.110;20.622;2023-02-20T09:38:16;0.38;;;0.20;;
58659;SDS011;44429;45.110;20.622;2023-02-20T09:40:42;1.50;;;0.30;;
58659;SDS011;44429;45.110;20.622;2023-02-20T09:45:40;0.75;;;0.43;;
58659;SDS011;44429;45.110;20.622;2023-02-20T09:48:11;1.25;;;0.63;;
58659;SDS011;44429;45.110;20.622;2023-02-20T09:50:46;0.38;;;0.17;;
58659;SDS011;44429;45.110;20.622;2023-02-20T09:53:19;0.43;;;0.20;;
58659;SDS011;44429;45.110;20.622;2023-02-20T09:55:47;0.15;;;0.10;;
58659;SDS011;44429;45.110;20.622;2023-02-20T09:58:36;0.85;;;0.35;;
58659;SDS011;44429;45.110;20.622;2023-02-20T10:01:02;1.05;;;0.60;;
58659;SDS011;44429;45.110;20.622;2023-02-20T10:03:38;0.68;;;0.43;;
58659;SDS011;44429;45.110;20.622;2023-02-20T10:06:13;0.30;;;0.15;;
58659;SDS011;44429;45.110;20.622;2023-02-20T10:08:40;0.63;;;0.30;;
58659;SDS011;44429;45.110;20.622;2023-02-20T10:11:06;0.00;;;0.00;;
58659;SDS011;44429;45.110;20.622;2023-02-20T10:13:46;0.38;;;0.15;;
58659;SDS011;44429;45.110;20.622;2023-02-20T10:18:55;0.98;;;0.43;;
58659;SDS011;44429;45.110;20.622;2023-02-20T10:24:00;0.50;;;0.38;;
58659;SDS011;44429;45.110;20.622;2023-02-20T10:26:35;1.52;;;0.65;;
58659;SDS011;44429;45.110;20.622;2023-02-20T10:32:00;1.08;;;0.32;;
58659;SDS011;44429;45.110;20.622;2023-02-20T10:34:33;0.10;;;0.10;;
58659;SDS011;44429;45.110;20.622;2023-02-20T10:37:23;0.40;;;0.13;;
58659;SDS011;44429;45.110;20.622;2023-02-20T10:39:48;1.65;;;0.85;;
58659;SDS011;44429;45.110;20.622;2023-02-20T10:42:16;0.08;;;0.00;;
58659;SDS011;44429;45.110;20.622;2023-02-20T10:44:52;0.00;;;0.00;;
58659;SDS011;44429;45.110;20.622;2023-02-20T10:47:20;4.88;;;1.38;;
58659;SDS011;44429;45.110;20.622;2023-02-20T10:52:25;0.00;;;0.00;;
58659;SDS011;44429;45.110;20.622;2023-02-20T10:55:08;0.57;;;0.20;;
58659;SDS011;44429;45.110;20.622;2023-02-20T10:57:44;2.05;;;0.45;;
58659;SDS011;44429;45.110;20.622;2023-02-20T11:00:14;0.55;;;0.10;;
58659;SDS011;44429;45.110;20.622;2023-02-20T11:02:44;0.20;;;0.13;;
58659;SDS011;44429;45.110;20.622;2023-02-20T11:05:18;1.00;;;0.47;;
58659;SDS011;44429;45.110;20.622;2023-02-20T11:07:47;0.15;;;0.10;;
58659;SDS011;44429;45.110;20.622;2023-02-20T11:10:13;0.93;;;0.30;;
58659;SDS011;44429;45.110;20.622;2023-02-20T11:12:40;0.00;;;0.00;;
58659;SDS011;44429;45.110;20.622;2023-02-20T11:15:12;1.65;;;0.40;;
58659;SDS011;44429;45.110;20.622;2023-02-20T11:17:39;0.10;;;0.10;;
58659;SDS011;44429;45.110;20.622;2023-02-20T11:20:39;1.77;;;0.90;;
58659;SDS011;44429;45.110;20.622;2023-02-20T11:22:52;1.75;;;0.93;;
58659;SDS011;44429;45.110;20.622;2023-02-20T11:27:48;0.10;;;0.10;;
58659;SDS011;44429;45.110;20.622;2023-02-20T11:32:40;0.63;;;0.22;;
58659;SDS011;44429;45.110;20.622;2023-02-20T11:37:46;0.22;;;0.10;;
58659;SDS011;44429;45.110;20.622;2023-02-20T11:40:16;0.32;;;0.17;;
58659;SDS011;44429;45.110;20.622;2023-02-20T11:42:46;2.72;;;0.52;;
58659;SDS011;44429;45.110;20.622;2023-02-20T11:47:40;0.82;;;0.40;;
58659;SDS011;44429;45.110;20.622;2023-02-20T11:50:17;0.90;;;0.52;;
58659;SDS011;44429;45.110;20.622;2023-02-20T11:55:23;0.60;;;0.40;;
58659;SDS011;44429;45.110;20.622;2023-02-20T11:57:49;0.45;;;0.22;;
58659;SDS011;44429;45.110;20.622;2023-02-20T12:00:23;1.00;;;0.45;;
58659;SDS011;44429;45.110;20.622;2023-02-20T12:03:35;3.03;;;0.82;;
58659;SDS011;44429;45.110;20.622;2023-02-20T12:05:37;0.68;;;0.50;;
58659;SDS011;44429;45.110;20.622;2023-02-20T12:08:17;0.75;;;0.22;;
58659;SDS011;44429;45.110;20.622;2023-02-20T12:10:45;1.40;;;0.63;;
58659;SDS011;44429;45.110;20.622;2023-02-20T12:13:14;0.10;;;0.10;;
58659;SDS011;44429;45.110;20.622;2023-02-20T12:15:40;2.28;;;0.20;;
58659;SDS011;44429;45.110;20.622;2023-02-20T12:20:37;0.00;;;0.00;;
58659;SDS011;44429;45.110;20.622;2023-02-20T12:36:00;2.67;;;0.38;;
58659;SDS011;44429;45.110;20.622;2023-02-20T12:41:27;2.35;;;0.35;;
58659;SDS011;44429;45.110;20.622;2023-02-20T12:44:02;0.22;;;0.10;;
58659;SDS011;44429;45.110;20.622;2023-02-20T12:52:01;0.10;;;0.10;;
58659;SDS011;44429;45.110;20.622;2023-02-20T12:57:05;0.82;;;0.20;;
58659;SDS011;44429;45.110;20.622;2023-02-20T12:59:55;6.32;;;1.65;;
58659;SDS011;44429;45.110;20.622;2023-02-20T13:04:45;0.47;;;0.20;;
58659;SDS011;44429;45.110;20.622;2023-02-20T13:07:16;0.65;;;0.20;;
58659;SDS011;44429;45.110;20.622;2023-02-20T13:10:02;0.88;;;0.50;;
58659;SDS011;44429;45.110;20.622;2023-02-20T13:12:29;2.30;;;0.52;;
58659;SDS011;44429;45.110;20.622;2023-02-20T13:19:59;0.43;;;0.35;;
58659;SDS011;44429;45.110;20.622;2023-02-20T13:22:30;0.10;;;0.10;;
58659;SDS011;44429;45.110;20.622;2023-02-20T13:25:29;0.00;;;0.00;;
58659;SDS011;44429;45.110;20.622;2023-02-20T13:27:42;0.40;;;0.20;;
58659;SDS011;44429;45.110;20.622;2023-02-20T13:30:17;1.80;;;0.30;;
58659;SDS011;44429;45.110;20.622;2023-02-20T13:32:44;0.38;;;0.20;;
58659;SDS011;44429;45.110;20.622;2023-02-20T13:37:55;0.13;;;0.10;;
58659;SDS011;44429;45.110;20.622;2023-02-20T13:46:07;1.15;;;0.45;;
58659;SDS011;44429;45.110;20.622;2023-02-20T13:53:37;0.70;;;0.17;;
58659;SDS011;44429;45.110;20.622;2023-02-20T13:56:03;0.52;;;0.10;;
58659;SDS011;44429;45.110;20.622;2023-02-20T13:58:29;0.55;;;0.45;;
58659;SDS011;44429;45.110;20.622;2023-02-20T14:00:56;1.30;;;0.32;;
58659;SDS011;44429;45.110;20.622;2023-02-20T14:08:26;0.65;;;0.20;;
58659;SDS011;44429;45.110;20.622;2023-02-20T14:10:52;0.22;;;0.10;;
58659;SDS011;44429;45.110;20.622;2023-02-20T14:13:19;4.95;;;0.75;;
58659;SDS011;44429;45.110;20.622;2023-02-20T14:15:50;0.17;;;0.10;;
58659;SDS011;44429;45.110;20.622;2023-02-20T14:18:17;0.15;;;0.08;;
58659;SDS011;44429;45.110;20.622;2023-02-20T14:20:44;0.00;;;0.00;;
58659;SDS011;44429;45.110;20.622;2023-02-20T14:23:27;0.45;;;0.30;;
58659;SDS011;44429;45.110;20.622;2023-02-20T14:28:19;0.05;;;0.05;;
58659;SDS011;44429;45.110;20.622;2023-02-20T14:30:45;0.55;;;0.10;;
58659;SDS011;44429;45.110;20.622;2023-02-20T14:33:29;1.27;;;0.22;;
58659;SDS011;44429;45.110;20.622;2023-02-20T14:40:53;0.10;;;0.10;;
58659;SDS011;44429;45.110;20.622;2023-02-20T14:43:20;1.95;;;0.57;;
58659;SDS011;44429;45.110;20.622;2023-02-20T14:45:46;0.88;;;0.20;;
58659;SDS011;44429;45.110;20.622;2023-02-20T14:48:26;1.77;;;0.63;;
58659;SDS011;44429;45.110;20.622;2023-02-20T14:51:02;3.15;;;0.80;;
58659;SDS011;44429;45.110;20.622;2023-02-20T14:53:33;1.30;;;0.38;;
58659;SDS011;44429;45.110;20.622;2023-02-20T14:56:07;3.25;;;0.40;;
58659;SDS011;44429;45.110;20.622;2023-02-20T14:58:34;3.25;;;0.98;;
58659;SDS011;44429;45.110;20.622;2023-02-20T15:01:12;1.65;;;0.50;;
58659;SDS011;44429;45.110;20.622;2023-02-20T15:03:38;2.38;;;0.50;;
58659;SDS011;44429;45.110;20.622;2023-02-20T15:06:04;1.40;;;0.55;;
58659;SDS011;44429;45.110;20.622;2023-02-20T15:08:32;1.52;;;0.75;;
58659;SDS011;44429;45.110;20.622;2023-02-20T15:11:04;1.40;;;0.55;;
58659;SDS011;44429;45.110;20.622;2023-02-20T15:13:34;2.10;;;1.08;;
58659;SDS011;44429;45.110;20.622;2023-02-20T15:16:05;32.90;;;5.13;;
58659;SDS011;44429;45.110;20.622;2023-02-20T15:18:33;52.03;;;14.55;;
58659;SDS011;44429;45.110;20.622;2023-02-20T15:20:59;21.08;;;10.27;;
58659;SDS011;44429;45.110;20.622;2023-02-20T15:23:29;13.48;;;3.92;;
58659;SDS011;44429;45.110;20.622;2023-02-20T15:25:56;6.57;;;3.25;;
58659;SDS011;44429;45.110;20.622;2023-02-20T15:28:29;35.47;;;7.93;;
58659;SDS011;44429;45.110;20.622;2023-02-20T15:33:35;18.40;;;7.15;;
58659;SDS011;44429;45.110;20.622;2023-02-20T15:36:01;10.80;;;4.35;;
58659;SDS011;44429;45.110;20.622;2023-02-20T15:38:28;11.45;;;2.53;;
58659;SDS011;44429;45.110;20.622;2023-02-20T15:40:59;7.75;;;2.10;;
58659;SDS011;44429;45.110;20.622;2023-02-20T15:43:25;5.70;;;2.50;;
58659;SDS011;44429;45.110;20.622;2023-02-20T15:45:51;3.88;;;1.50;;
58659;SDS011;44429;45.110;20.622;2023-02-20T15:48:18;8.25;;;1.75;;
58659;SDS011;44429;45.110;20.622;2023-02-20T15:50:44;5.43;;;2.45;;
58659;SDS011;44429;45.110;20.622;2023-02-20T15:53:13;8.75;;;1.65;;
58659;SDS011;44429;45.110;20.622;2023-02-20T15:55:40;12.05;;;1.27;;
58659;SDS011;44429;45.110;20.622;2023-02-20T15:58:09;5.55;;;2.03;;
58659;SDS011;44429;45.110;20.622;2023-02-20T16:00:44;2.58;;;0.98;;
58659;SDS011;44429;45.110;20.622;2023-02-20T16:03:10;10.15;;;2.53;;
58659;SDS011;44429;45.110;20.622;2023-02-20T16:05:36;6.97;;;1.73;;
58659;SDS011;44429;45.110;20.622;2023-02-20T16:08:02;2.65;;;1.25;;
58659;SDS011;44429;45.110;20.622;2023-02-20T16:10:28;4.45;;;1.75;;
58659;SDS011;44429;45.110;20.622;2023-02-20T16:12:55;9.13;;;1.67;;
58659;SDS011;44429;45.110;20.622;2023-02-20T16:15:21;10.60;;;2.53;;
58659;SDS011;44429;45.110;20.622;2023-02-20T16:17:49;4.78;;;1.60;;
58659;SDS011;44429;45.110;20.622;2023-02-20T16:20:16;3.47;;;1.60;;
58659;SDS011;44429;45.110;20.622;2023-02-20T16:22:42;4.78;;;1.30;;
58659;SDS011;44429;45.110;20.622;2023-02-20T16:25:13;10.40;;;2.40;;
58659;SDS011;44429;45.110;20.622;2023-02-20T16:27:40;6.47;;;2.53;;
58659;SDS011;44429;45.110;20.622;2023-02-20T16:30:06;10.05;;;3.33;;
58659;SDS011;44429;45.110;20.622;2023-02-20T16:32:33;9.90;;;2.90;;
58659;SDS011;44429;45.110;20.622;2023-02-20T16:34:59;15.65;;;3.05;;
58659;SDS011;44429;45.110;20.622;2023-02-20T16:37:25;14.80;;;5.35;;
58659;SDS011;44429;45.110;20.622;2023-02-20T16:39:52;17.60;;;4.40;;